createdAt,value
2022-09-16T00:00:23.160Z,96.30
2022-09-16T00:01:23.177Z,96.20
2022-09-16T00:02:23.228Z,96.20
2022-09-16T00:03:23.120Z,96.20
2022-09-16T00:04:23.119Z,96.00
2022-09-16T00:05:23.101Z,96.00
2022-09-16T00:06:23.099Z,95.90
2022-09-16T00:07:23.100Z,95.79
2022-09-16T00:08:23.072Z,95.90
2022-09-16T00:09:23.058Z,95.69
2022-09-16T00:10:23.050Z,95.69
2022-09-16T00:11:23.042Z,95.69
2022-09-16T00:12:23.062Z,95.49
2022-09-16T00:13:23.014Z,95.49
2022-09-16T00:14:23.011Z,95.39
2022-09-16T00:15:22.991Z,95.18
2022-09-16T00:16:23.050Z,95.08
2022-09-16T00:17:22.983Z,94.98
2022-09-16T00:18:22.963Z,94.98
2022-09-16T00:19:22.954Z,94.98
2022-09-16T00:20:22.951Z,95.18
2022-09-16T00:21:22.954Z,95.59
2022-09-16T00:22:22.932Z,95.69
2022-09-16T00:23:22.902Z,96.00
2022-09-16T00:24:22.900Z,96.00
2022-09-16T00:25:22.882Z,96.41
2022-09-16T00:26:22.883Z,96.81
2022-09-16T00:27:22.883Z,96.81
2022-09-16T00:28:22.860Z,96.96
2022-09-16T00:29:22.844Z,96.86
2022-09-16T00:30:22.842Z,97.16
2022-09-16T00:31:22.892Z,97.27
2022-09-16T00:32:22.845Z,97.16
2022-09-16T00:33:22.815Z,97.47
2022-09-16T00:34:22.793Z,97.47
2022-09-16T00:35:22.775Z,97.57
2022-09-16T00:36:22.766Z,97.67
2022-09-16T00:37:22.775Z,97.67
2022-09-16T00:38:22.745Z,97.57
2022-09-16T00:39:22.732Z,97.16
2022-09-16T00:40:22.806Z,97.37
2022-09-16T00:41:22.717Z,97.57
2022-09-16T00:42:22.735Z,97.47
2022-09-16T00:43:22.694Z,97.27
2022-09-16T00:44:22.703Z,97.37
2022-09-16T00:45:22.705Z,97.16
2022-09-16T00:46:22.700Z,97.16
2022-09-16T00:47:22.684Z,97.06
2022-09-16T00:48:22.648Z,97.16
2022-09-16T00:49:22.627Z,97.27
2022-09-16T00:50:22.625Z,97.37
2022-09-16T00:51:22.606Z,97.52
2022-09-16T00:52:22.605Z,97.92
2022-09-16T00:53:22.605Z,97.82
2022-09-16T00:54:22.596Z,97.82
2022-09-16T00:55:22.557Z,97.62
2022-09-16T00:56:22.558Z,97.72
2022-09-16T00:57:22.547Z,97.41
2022-09-16T00:58:22.537Z,97.52
2022-09-16T00:59:22.546Z,97.62
2022-09-16T01:00:22.516Z,97.62
2022-09-16T01:01:22.498Z,97.62
2022-09-16T01:02:22.577Z,97.62
2022-09-16T01:03:22.475Z,97.72
2022-09-16T01:04:22.512Z,97.92
2022-09-16T01:05:22.460Z,97.92
2022-09-16T01:06:22.470Z,98.13
2022-09-16T01:07:22.429Z,98.23
2022-09-16T01:08:22.432Z,98.02
2022-09-16T01:09:22.458Z,97.82
2022-09-16T01:10:22.406Z,97.72
2022-09-16T01:11:22.387Z,97.82
2022-09-16T01:12:22.387Z,97.72
2022-09-16T01:13:22.365Z,97.92
2022-09-16T01:14:22.359Z,97.92
2022-09-16T01:15:22.369Z,97.92
2022-09-16T01:16:22.438Z,98.02
2022-09-16T01:17:22.336Z,98.13
2022-09-16T01:18:22.320Z,98.02
2022-09-16T01:19:22.300Z,98.13
2022-09-16T01:20:22.309Z,98.23
2022-09-16T01:21:22.277Z,98.23
2022-09-16T01:22:22.280Z,98.33
2022-09-16T01:23:22.257Z,98.33
2022-09-16T01:24:22.259Z,98.33
2022-09-16T01:25:22.262Z,98.43
2022-09-16T01:26:22.248Z,98.43
2022-09-16T01:27:22.217Z,98.43
2022-09-16T01:28:22.200Z,98.43
2022-09-16T01:29:22.191Z,98.43
2022-09-16T01:30:22.201Z,98.54
2022-09-16T01:31:22.213Z,98.64
2022-09-16T01:32:22.202Z,98.64
2022-09-16T01:33:22.150Z,98.74
2022-09-16T01:34:22.141Z,98.74
2022-09-16T01:35:22.141Z,98.84
2022-09-16T01:36:22.121Z,98.84
2022-09-16T01:37:22.110Z,98.74
2022-09-16T01:38:22.092Z,98.64
2022-09-16T01:39:22.080Z,98.64
2022-09-16T01:40:22.123Z,98.74
2022-09-16T01:41:22.060Z,98.74
2022-09-16T01:42:22.152Z,98.74
2022-09-16T01:43:22.032Z,98.84
2022-09-16T01:44:22.032Z,98.74
2022-09-16T01:45:22.033Z,98.74
2022-09-16T01:46:22.063Z,98.64
2022-09-16T01:47:22.026Z,98.64
2022-09-16T01:48:21.981Z,98.74
2022-09-16T01:49:21.973Z,98.74
2022-09-16T01:50:21.982Z,98.64
2022-09-16T01:51:21.984Z,98.54
2022-09-16T01:52:21.943Z,98.54
2022-09-16T01:53:21.932Z,98.54
2022-09-16T01:54:21.924Z,98.64
2022-09-16T01:55:21.913Z,99.04
2022-09-16T01:56:21.912Z,99.15
2022-09-16T01:57:21.889Z,99.55
2022-09-16T01:58:21.873Z,99.66
2022-09-16T01:59:21.864Z,99.96
2022-09-16T02:00:21.852Z,99.99
2022-09-16T02:01:21.959Z,99.99
2022-09-16T02:02:21.923Z,99.99
2022-09-16T02:03:21.831Z,99.99
2022-09-16T02:04:21.804Z,99.99
2022-09-16T02:05:21.804Z,99.99
2022-09-16T02:06:21.783Z,99.99
2022-09-16T02:07:21.814Z,99.99
2022-09-16T02:08:21.765Z,99.99
2022-09-16T02:09:21.757Z,99.99
2022-09-16T02:10:21.742Z,99.99
2022-09-16T02:11:21.763Z,99.99
2022-09-16T02:12:21.731Z,99.99
2022-09-16T02:13:21.721Z,99.99
2022-09-16T02:14:21.728Z,99.99
2022-09-16T02:15:21.692Z,99.99
2022-09-16T02:16:21.740Z,99.99
2022-09-16T02:17:21.672Z,99.99
2022-09-16T02:18:21.654Z,99.99
2022-09-16T02:19:21.647Z,99.99
2022-09-16T02:20:21.637Z,99.99
2022-09-16T02:21:21.655Z,99.99
2022-09-16T02:22:21.635Z,99.99
2022-09-16T02:23:21.606Z,99.99
2022-09-16T02:24:21.586Z,99.99
2022-09-16T02:25:21.586Z,99.99
2022-09-16T02:26:21.586Z,99.99
2022-09-16T02:27:21.578Z,99.99
2022-09-16T02:28:21.545Z,99.99
2022-09-16T02:29:21.535Z,99.99
2022-09-16T02:30:21.525Z,99.99
2022-09-16T02:31:21.560Z,99.99
2022-09-16T02:32:21.527Z,99.99
2022-09-16T02:33:21.503Z,99.80
2022-09-16T02:34:21.477Z,99.80
2022-09-16T02:35:21.476Z,99.70
2022-09-16T02:36:21.457Z,99.91
2022-09-16T02:37:21.453Z,99.91
2022-09-16T02:38:21.457Z,99.70
2022-09-16T02:39:21.428Z,99.80
2022-09-16T02:40:21.473Z,99.70
2022-09-16T02:41:21.408Z,99.60
2022-09-16T02:42:21.416Z,99.50
2022-09-16T02:43:21.387Z,99.50
2022-09-16T02:44:21.390Z,99.70
2022-09-16T02:45:21.357Z,99.80
2022-09-16T02:46:21.411Z,99.70
2022-09-16T02:47:21.357Z,99.80
2022-09-16T02:48:21.335Z,99.80
2022-09-16T02:49:21.324Z,99.99
2022-09-16T02:50:21.329Z,99.99
2022-09-16T02:51:21.297Z,99.99
2022-09-16T02:52:21.309Z,99.99
2022-09-16T02:53:21.278Z,99.91
2022-09-16T02:54:21.268Z,99.99
2022-09-16T02:55:21.251Z,99.99
2022-09-16T02:56:21.249Z,99.99
2022-09-16T02:57:21.229Z,99.99
2022-09-16T02:58:21.249Z,99.99
2022-09-16T02:59:21.212Z,99.99
2022-09-16T03:00:21.200Z,99.99
2022-09-16T03:01:21.235Z,99.99
2022-09-16T03:02:21.216Z,99.99
2022-09-16T03:03:21.191Z,99.99
2022-09-16T03:04:21.186Z,99.99
2022-09-16T03:05:21.140Z,99.99
2022-09-16T03:06:21.137Z,99.99
2022-09-16T03:07:21.122Z,99.99
2022-09-16T03:08:21.111Z,99.99
2022-09-16T03:09:21.099Z,99.99
2022-09-16T03:10:21.118Z,99.99
2022-09-16T03:11:21.082Z,99.99
2022-09-16T03:12:21.069Z,99.99
2022-09-16T03:13:21.061Z,99.99
2022-09-16T03:14:21.077Z,99.99
2022-09-16T03:15:21.032Z,99.99
2022-09-16T03:16:21.131Z,99.99
2022-09-16T03:17:21.022Z,99.99
2022-09-16T03:18:21.002Z,99.99
2022-09-16T03:19:21.032Z,99.99
2022-09-16T03:20:20.984Z,99.99
2022-09-16T03:21:20.970Z,99.99
2022-09-16T03:22:20.963Z,99.99
2022-09-16T03:23:20.956Z,99.99
2022-09-16T03:24:20.960Z,99.99
2022-09-16T03:25:20.931Z,99.99
2022-09-16T03:26:20.913Z,99.99
2022-09-16T03:27:20.903Z,99.99
2022-09-16T03:28:20.904Z,99.99
2022-09-16T03:29:20.912Z,99.99
2022-09-16T03:30:20.872Z,99.99
2022-09-16T03:31:20.926Z,99.99
2022-09-16T03:32:20.853Z,99.99
2022-09-16T03:33:20.854Z,99.99
2022-09-16T03:34:20.832Z,99.99
2022-09-16T03:35:20.843Z,99.99
2022-09-16T03:36:20.812Z,99.99
2022-09-16T03:37:20.801Z,99.99
2022-09-16T03:38:20.793Z,99.99
2022-09-16T03:39:20.833Z,99.99
2022-09-16T03:40:20.873Z,99.99
2022-09-16T03:41:20.756Z,99.99
2022-09-16T03:42:20.745Z,99.99
2022-09-16T03:43:20.734Z,99.99
2022-09-16T03:44:20.723Z,99.99
2022-09-16T03:45:20.736Z,99.99
2022-09-16T03:46:20.721Z,99.99
2022-09-16T03:47:20.693Z,99.99
2022-09-16T03:48:20.675Z,99.99
2022-09-16T03:49:20.673Z,99.99
2022-09-16T03:50:20.684Z,99.99
2022-09-16T03:51:20.645Z,99.99
2022-09-16T03:52:20.636Z,99.99
2022-09-16T03:53:20.626Z,99.99
2022-09-16T03:54:20.621Z,99.99
2022-09-16T03:55:20.624Z,99.99
2022-09-16T03:56:20.594Z,99.99
2022-09-16T03:57:20.586Z,99.99
2022-09-16T03:58:20.566Z,99.99
2022-09-16T03:59:20.556Z,99.99
2022-09-16T04:00:20.567Z,99.99
2022-09-16T04:01:20.621Z,99.99
2022-09-16T04:02:20.561Z,99.99
2022-09-16T04:03:20.515Z,99.99
2022-09-16T04:04:20.507Z,99.99
2022-09-16T04:05:20.517Z,99.99
2022-09-16T04:06:20.485Z,99.99
2022-09-16T04:07:20.477Z,99.99
2022-09-16T04:08:20.457Z,99.99
2022-09-16T04:09:20.458Z,99.99
2022-09-16T04:10:20.457Z,99.99
2022-09-16T04:11:20.440Z,99.99
2022-09-16T04:12:20.426Z,99.99
2022-09-16T04:13:20.407Z,99.99
2022-09-16T04:14:20.397Z,99.99
2022-09-16T04:15:20.425Z,99.99
2022-09-16T04:16:20.425Z,99.99
2022-09-16T04:17:20.368Z,99.99
2022-09-16T04:18:20.350Z,99.99
2022-09-16T04:19:20.348Z,99.99
2022-09-16T04:20:20.330Z,99.99
2022-09-16T04:21:20.347Z,99.99
2022-09-16T04:22:20.321Z,99.99
2022-09-16T04:23:20.299Z,99.99
2022-09-16T04:24:20.289Z,99.99
2022-09-16T04:25:20.310Z,99.99
2022-09-16T04:26:20.268Z,99.99
2022-09-16T04:27:20.258Z,99.99
2022-09-16T04:28:20.247Z,99.99
2022-09-16T04:29:20.240Z,99.99
2022-09-16T04:30:20.251Z,99.99
2022-09-16T04:31:20.224Z,99.99
2022-09-16T04:32:20.207Z,99.99
2022-09-16T04:33:20.196Z,99.99
2022-09-16T04:34:20.178Z,99.99
2022-09-16T04:35:20.200Z,99.99
2022-09-16T04:36:20.167Z,99.99
2022-09-16T04:37:20.149Z,99.99
2022-09-16T04:38:20.141Z,99.99
2022-09-16T04:39:20.129Z,99.99
2022-09-16T04:40:20.169Z,99.99
2022-09-16T04:41:20.131Z,99.99
2022-09-16T04:42:20.091Z,99.99
2022-09-16T04:43:20.090Z,99.99
2022-09-16T04:44:20.070Z,99.99
2022-09-16T04:45:20.059Z,99.99
2022-09-16T04:46:20.125Z,99.99
2022-09-16T04:47:20.042Z,99.99
2022-09-16T04:48:20.030Z,99.99
2022-09-16T04:49:20.020Z,99.99
2022-09-16T04:50:20.010Z,99.99
2022-09-16T04:51:20.004Z,99.99
2022-09-16T04:52:20.011Z,99.99
2022-09-16T04:53:19.981Z,99.99
2022-09-16T04:54:19.960Z,99.99
2022-09-16T04:55:19.953Z,99.99
2022-09-16T04:56:19.987Z,99.99
2022-09-16T04:57:19.930Z,99.99
2022-09-16T04:58:19.921Z,99.99
2022-09-16T04:59:19.911Z,99.99
2022-09-16T05:00:19.903Z,99.99
2022-09-16T05:01:19.950Z,99.99
2022-09-16T05:02:19.904Z,99.99
2022-09-16T05:03:19.888Z,99.99
2022-09-16T05:04:19.851Z,99.99
2022-09-16T05:05:19.843Z,99.99
2022-09-16T05:06:20.881Z,99.99
2022-09-16T05:07:19.821Z,99.99
2022-09-16T05:08:19.834Z,99.99
2022-09-16T05:09:19.803Z,99.99
2022-09-16T05:10:19.786Z,99.99
2022-09-16T05:11:19.800Z,99.99
2022-09-16T05:12:19.773Z,99.99
2022-09-16T05:13:19.762Z,99.99
2022-09-16T05:14:19.774Z,99.99
2022-09-16T05:15:20.037Z,99.99
2022-09-16T05:16:19.781Z,99.99
2022-09-16T05:17:46.563Z,99.95
2022-09-16T05:18:20.704Z,99.75
2022-09-16T05:19:19.693Z,99.65
2022-09-16T05:20:19.735Z,99.54
2022-09-16T05:21:19.682Z,99.54
2022-09-16T05:22:19.665Z,99.54
2022-09-16T05:23:19.653Z,99.44
2022-09-16T05:24:19.633Z,99.34
2022-09-16T05:25:19.625Z,99.34
2022-09-16T05:26:19.645Z,99.24
2022-09-16T05:27:19.605Z,99.24
2022-09-16T05:28:19.594Z,99.04
2022-09-16T05:29:19.586Z,98.93
2022-09-16T05:30:22.764Z,98.93
2022-09-16T05:31:20.643Z,98.73
2022-09-16T05:32:27.356Z,98.63
2022-09-16T05:33:19.544Z,98.63
2022-09-16T05:34:19.528Z,98.52
2022-09-16T05:35:19.524Z,98.43
2022-09-16T05:36:19.512Z,98.52
2022-09-16T05:37:19.527Z,98.11
2022-09-16T05:38:19.489Z,98.11
2022-09-16T05:39:24.044Z,98.22
2022-09-16T05:40:20.492Z,98.02
2022-09-16T05:41:19.458Z,98.02
2022-09-16T05:42:19.458Z,97.91
2022-09-16T05:43:19.456Z,97.81
2022-09-16T05:44:19.418Z,97.71
2022-09-16T05:45:24.805Z,97.71
2022-09-16T05:46:20.449Z,97.66
2022-09-16T05:47:19.417Z,97.61
2022-09-16T05:48:19.397Z,97.71
2022-09-16T05:49:19.369Z,97.61
2022-09-16T05:50:19.355Z,97.61
2022-09-16T05:51:20.729Z,97.61
2022-09-16T05:52:19.510Z,97.66
2022-09-16T05:53:19.330Z,97.36
2022-09-16T05:54:19.337Z,97.25
2022-09-16T05:55:19.306Z,97.16
2022-09-16T05:56:19.289Z,96.95
2022-09-16T05:57:19.291Z,96.95
2022-09-16T05:58:19.308Z,96.95
2022-09-16T05:59:19.263Z,96.84
2022-09-16T06:00:19.261Z,96.54
2022-09-16T06:01:19.273Z,96.75
2022-09-16T06:02:19.296Z,96.64
2022-09-16T06:03:19.218Z,96.23
2022-09-16T06:04:19.229Z,95.93
2022-09-16T06:05:19.200Z,95.83
2022-09-16T06:06:19.180Z,95.78
2022-09-16T06:07:19.171Z,95.73
2022-09-16T06:08:19.180Z,95.89
2022-09-16T06:09:19.157Z,95.78
2022-09-16T06:10:19.138Z,95.89
2022-09-16T06:11:19.131Z,95.78
2022-09-16T06:12:19.130Z,95.68
2022-09-16T06:13:19.133Z,95.58
2022-09-16T06:14:19.097Z,95.58
2022-09-16T06:15:19.090Z,95.48
2022-09-16T06:16:19.128Z,95.17
2022-09-16T06:17:19.069Z,95.07
2022-09-16T06:18:19.051Z,95.07
2022-09-16T06:19:19.064Z,94.87
2022-09-16T06:20:19.031Z,95.07
2022-09-16T06:21:19.022Z,94.92
2022-09-16T06:22:19.023Z,94.82
2022-09-16T06:23:19.021Z,94.62
2022-09-16T06:24:18.983Z,94.42
2022-09-16T06:25:18.983Z,94.42
2022-09-16T06:26:18.961Z,94.31
2022-09-16T06:27:18.952Z,94.31
2022-09-16T06:28:18.964Z,93.80
2022-09-16T06:29:18.932Z,93.76
2022-09-16T06:30:18.924Z,93.66
2022-09-16T06:31:18.988Z,93.66
2022-09-16T06:32:18.912Z,93.45
2022-09-16T06:33:18.920Z,93.76
2022-09-16T06:34:19.009Z,93.86
2022-09-16T06:35:18.875Z,93.86
2022-09-16T06:36:18.861Z,93.66
2022-09-16T06:37:18.850Z,93.71
2022-09-16T06:38:18.841Z,93.41
2022-09-16T06:39:18.850Z,93.51
2022-09-16T06:40:18.915Z,93.66
2022-09-16T06:41:18.806Z,93.55
2022-09-16T06:42:18.806Z,93.76
2022-09-16T06:43:18.787Z,93.86
2022-09-16T06:44:18.775Z,93.96
2022-09-16T06:45:18.783Z,93.96
2022-09-16T06:46:18.834Z,93.86
2022-09-16T06:47:18.741Z,93.76
2022-09-16T06:48:18.733Z,93.96
2022-09-16T06:49:18.726Z,94.07
2022-09-16T06:50:18.727Z,93.96
2022-09-16T06:51:18.697Z,93.76
2022-09-16T06:52:18.697Z,94.07
2022-09-16T06:53:18.676Z,93.35
2022-09-16T06:54:18.664Z,93.55
2022-09-16T06:55:18.687Z,93.55
2022-09-16T06:56:18.635Z,93.25
2022-09-16T06:57:18.638Z,93.45
2022-09-16T06:58:18.616Z,93.35
2022-09-16T06:59:18.607Z,93.55
2022-09-16T07:00:18.616Z,93.35
2022-09-16T07:01:18.644Z,93.25
2022-09-16T07:02:18.636Z,93.45
2022-09-16T07:03:18.565Z,93.55
2022-09-16T07:04:18.556Z,93.66
2022-09-16T07:05:18.566Z,93.80
2022-09-16T07:06:18.537Z,93.96
2022-09-16T07:07:18.536Z,93.96
2022-09-16T07:08:18.513Z,94.07
2022-09-16T07:09:18.497Z,93.55
2022-09-16T07:10:18.487Z,93.66
2022-09-16T07:11:18.476Z,93.55
2022-09-16T07:12:19.740Z,93.25
2022-09-16T07:13:18.457Z,92.80
2022-09-16T07:14:18.450Z,92.49
2022-09-16T07:15:18.428Z,92.29
2022-09-16T07:16:18.609Z,92.49
2022-09-16T07:17:18.439Z,92.35
2022-09-16T07:18:18.407Z,92.35
2022-09-16T07:19:18.390Z,91.90
2022-09-16T07:20:18.379Z,91.39
2022-09-16T07:21:18.376Z,90.31
2022-09-16T07:22:18.396Z,90.52
2022-09-16T07:23:18.348Z,89.91
2022-09-16T07:24:18.338Z,90.11
2022-09-16T07:25:18.343Z,89.61
2022-09-16T07:26:18.320Z,89.91
2022-09-16T07:27:18.335Z,89.91
2022-09-16T07:28:18.319Z,89.70
2022-09-16T07:29:18.294Z,89.70
2022-09-16T07:30:18.274Z,88.79
2022-09-16T07:31:18.283Z,88.83
2022-09-16T07:32:18.262Z,89.03
2022-09-16T07:33:18.260Z,89.34
2022-09-16T07:34:18.229Z,89.14
2022-09-16T07:35:18.226Z,88.79
2022-09-16T07:36:18.210Z,88.79
2022-09-16T07:37:18.190Z,88.08
2022-09-16T07:38:18.212Z,88.59
2022-09-16T07:39:18.199Z,88.28
2022-09-16T07:40:18.294Z,87.87
2022-09-16T07:41:18.155Z,87.77
2022-09-16T07:42:18.157Z,87.63
2022-09-16T07:43:18.130Z,87.53
2022-09-16T07:44:18.140Z,86.45
2022-09-16T07:45:18.112Z,86.96
2022-09-16T07:46:18.141Z,87.26
2022-09-16T07:47:22.098Z,87.06
2022-09-16T07:48:18.073Z,86.82
2022-09-16T07:49:18.060Z,86.51
2022-09-16T07:50:18.079Z,86.31
2022-09-16T07:51:18.041Z,86.41
2022-09-16T07:52:18.043Z,86.51
2022-09-16T07:53:18.021Z,87.02
2022-09-16T07:54:18.014Z,86.51
2022-09-16T07:55:18.002Z,86.21
2022-09-16T07:56:18.014Z,86.41
2022-09-16T07:57:17.980Z,86.10
2022-09-16T07:58:17.989Z,86.27
2022-09-16T07:59:19.057Z,85.76
2022-09-16T08:00:17.945Z,85.96
2022-09-16T08:01:17.990Z,86.07
2022-09-16T08:02:18.066Z,85.96
2022-09-16T08:03:17.911Z,85.92
2022-09-16T08:04:17.904Z,85.72
2022-09-16T08:05:17.885Z,85.52
2022-09-16T08:06:17.882Z,85.21
2022-09-16T08:07:17.866Z,84.60
2022-09-16T08:08:17.890Z,84.91
2022-09-16T08:10:18.833Z,85.17
2022-09-16T08:11:17.822Z,85.07
2022-09-16T08:12:17.851Z,84.26
2022-09-16T08:13:17.803Z,84.46
2022-09-16T08:14:17.803Z,84.16
2022-09-16T08:16:17.801Z,84.26
2022-09-16T08:17:17.759Z,83.95
2022-09-16T08:18:17.773Z,83.71
2022-09-16T08:19:17.748Z,83.00
2022-09-16T08:20:17.728Z,83.00
2022-09-16T08:21:17.715Z,83.31
2022-09-16T08:22:17.716Z,83.20
2022-09-16T08:23:17.696Z,82.50
2022-09-16T08:24:17.705Z,83.31
2022-09-16T08:25:17.676Z,83.31
2022-09-16T08:26:17.666Z,82.96
2022-09-16T08:27:17.647Z,81.85
2022-09-16T08:28:17.657Z,80.73
2022-09-16T08:29:18.157Z,80.83
2022-09-16T08:30:17.617Z,81.44
2022-09-16T08:31:17.663Z,81.24
2022-09-16T08:32:17.606Z,81.34
2022-09-16T08:33:17.607Z,80.83
2022-09-16T08:34:17.573Z,80.93
2022-09-16T08:35:17.589Z,80.49
2022-09-16T08:36:17.558Z,80.79
2022-09-16T08:37:17.545Z,80.49
2022-09-16T08:38:17.527Z,80.19
2022-09-16T08:39:17.517Z,79.27
2022-09-16T08:40:17.587Z,78.77
2022-09-16T08:41:17.518Z,79.58
2022-09-16T08:42:19.829Z,79.38
2022-09-16T08:43:17.470Z,80.19
2022-09-16T08:44:17.459Z,79.88
2022-09-16T08:45:17.448Z,79.85
2022-09-16T08:46:17.475Z,79.54
2022-09-16T08:47:17.450Z,79.03
2022-09-16T08:48:17.418Z,78.83
2022-09-16T08:49:17.412Z,79.54
2022-09-16T08:50:17.401Z,79.80
2022-09-16T08:51:17.381Z,79.60
2022-09-16T08:52:17.411Z,78.69
2022-09-16T08:53:17.360Z,78.45
2022-09-16T08:54:17.352Z,77.75
2022-09-16T08:55:17.342Z,77.03
2022-09-16T08:56:17.335Z,76.83
2022-09-16T08:57:17.339Z,76.32
2022-09-16T08:58:17.310Z,75.01
2022-09-16T08:59:17.294Z,72.88
2022-09-16T09:00:17.282Z,72.41
2022-09-16T09:01:17.324Z,73.59
2022-09-16T09:02:17.640Z,73.39
2022-09-16T09:03:17.254Z,73.80
2022-09-16T09:04:17.243Z,73.90
2022-09-16T09:05:17.254Z,72.38
2022-09-16T09:06:17.260Z,72.44
2022-09-16T09:07:17.213Z,72.75
2022-09-16T09:08:17.203Z,72.44
2022-09-16T09:09:17.215Z,72.51
2022-09-16T09:10:17.174Z,71.60
2022-09-16T09:11:17.162Z,71.09
2022-09-16T09:12:18.029Z,71.50
2022-09-16T09:13:18.017Z,71.60
2022-09-16T09:14:17.142Z,71.47
2022-09-16T09:15:17.146Z,69.65
2022-09-16T09:16:17.208Z,69.85
2022-09-16T09:17:17.126Z,70.56
2022-09-16T09:18:17.094Z,70.25
2022-09-16T09:19:17.076Z,70.05
2022-09-16T09:20:17.092Z,70.53
2022-09-16T09:21:17.053Z,69.42
2022-09-16T09:22:17.056Z,68.47
2022-09-16T09:23:17.045Z,68.27
2022-09-16T09:24:17.023Z,67.86
2022-09-16T09:25:17.036Z,68.10
2022-09-16T09:26:17.003Z,67.69
2022-09-16T09:27:16.988Z,68.07
2022-09-16T09:28:16.987Z,66.62
2022-09-16T09:29:16.965Z,66.32
2022-09-16T09:30:16.986Z,66.72
2022-09-16T09:31:17.008Z,66.69
2022-09-16T09:32:16.964Z,66.89
2022-09-16T09:33:41.479Z,66.49
2022-09-16T09:34:17.939Z,65.99
2022-09-16T09:35:16.903Z,65.42
2022-09-16T09:36:16.908Z,64.11
2022-09-16T09:37:16.878Z,64.01
2022-09-16T09:38:16.868Z,63.47
2022-09-16T09:39:16.877Z,62.87
2022-09-16T09:40:16.877Z,63.37
2022-09-16T09:41:16.839Z,63.21
2022-09-16T09:42:16.838Z,62.77
2022-09-16T09:43:16.838Z,62.74
2022-09-16T09:44:16.809Z,62.57
2022-09-16T09:45:16.797Z,63.20
2022-09-16T09:46:16.919Z,63.70
2022-09-16T09:47:16.774Z,62.84
2022-09-16T09:48:16.763Z,63.40
2022-09-16T09:49:16.769Z,62.77
2022-09-16T09:50:16.738Z,64.24
2022-09-16T09:51:16.729Z,63.93
2022-09-16T09:52:16.730Z,64.24
2022-09-16T09:53:16.701Z,62.44
2022-09-16T09:54:16.690Z,60.94
2022-09-16T09:55:17.521Z,59.91
2022-09-16T09:56:16.670Z,59.41
2022-09-16T09:57:16.681Z,59.13
2022-09-16T09:58:16.650Z,60.16
2022-09-16T09:59:16.660Z,61.33
2022-09-16T10:00:16.702Z,62.29
2022-09-16T10:01:16.635Z,61.46
2022-09-16T10:02:16.635Z,61.56
2022-09-16T10:03:16.590Z,62.10
2022-09-16T10:04:16.632Z,59.00
2022-09-16T10:05:16.571Z,60.19
2022-09-16T10:06:16.560Z,58.77
2022-09-16T10:07:16.556Z,57.39
2022-09-16T10:08:16.861Z,57.84
2022-09-16T10:09:16.532Z,59.39
2022-09-16T10:10:16.590Z,60.96
2022-09-16T10:11:16.514Z,62.22
2022-09-16T10:12:16.511Z,63.39
2022-09-16T10:13:16.491Z,63.60
2022-09-16T10:14:16.482Z,60.06
2022-09-16T10:15:16.484Z,58.80
2022-09-16T10:16:16.497Z,60.39
2022-09-16T10:17:16.435Z,59.41
2022-09-16T10:18:16.432Z,60.60
2022-09-16T10:19:16.416Z,58.29
2022-09-16T10:20:16.460Z,57.51
2022-09-16T10:21:16.394Z,56.05
2022-09-16T10:22:16.396Z,55.73
2022-09-16T10:23:16.375Z,55.22
2022-09-16T10:24:16.375Z,52.80
2022-09-16T10:25:16.376Z,52.42
2022-09-16T10:26:16.345Z,54.58
2022-09-16T10:27:16.327Z,55.08
2022-09-16T10:28:16.350Z,56.76
2022-09-16T10:29:16.309Z,58.62
2022-09-16T10:30:16.443Z,58.28
2022-09-16T10:31:16.328Z,59.64
2022-09-16T10:32:16.288Z,61.21
2022-09-16T10:33:16.268Z,58.95
2022-09-16T10:34:16.256Z,57.14
2022-09-16T10:35:16.260Z,54.65
2022-09-16T10:36:16.239Z,53.85
2022-09-16T10:37:16.218Z,53.30
2022-09-16T10:38:16.218Z,53.59
2022-09-16T10:39:16.201Z,53.50
2022-09-16T10:40:16.367Z,53.30
2022-09-16T10:41:16.181Z,53.17
2022-09-16T10:42:16.181Z,52.92
2022-09-16T10:43:16.151Z,53.80
2022-09-16T10:44:17.458Z,53.27
2022-09-16T10:45:16.134Z,53.72
2022-09-16T10:46:16.188Z,53.77
2022-09-16T10:47:16.110Z,52.27
2022-09-16T10:48:16.101Z,50.24
2022-09-16T10:49:16.095Z,50.59
2022-09-16T10:50:16.081Z,50.15
2022-09-16T10:51:16.071Z,50.17
2022-09-16T10:52:16.102Z,50.00
2022-09-16T10:53:16.044Z,52.22
2022-09-16T10:54:16.051Z,51.17
2022-09-16T10:55:16.024Z,51.02
2022-09-16T10:56:16.014Z,49.13
2022-09-16T10:57:16.004Z,47.96
2022-09-16T10:58:16.015Z,49.62
2022-09-16T10:59:15.984Z,52.27
2022-09-16T11:00:15.976Z,52.17
2022-09-16T11:01:17.592Z,54.77
2022-09-16T11:02:16.305Z,56.46
2022-09-16T11:03:15.945Z,58.75
2022-09-16T11:04:15.956Z,60.72
2022-09-16T11:05:15.916Z,61.50
2022-09-16T11:06:15.915Z,58.64
2022-09-16T11:07:15.897Z,57.56
2022-09-16T11:08:15.915Z,55.50
2022-09-16T11:09:15.878Z,54.35
2022-09-16T11:10:15.870Z,51.09
2022-09-16T11:11:15.850Z,49.74
2022-09-16T11:12:15.860Z,48.61
2022-09-16T11:13:15.859Z,50.20
2022-09-16T11:14:15.826Z,49.55
2022-09-16T11:15:15.818Z,48.20
2022-09-16T11:16:15.833Z,46.50
2022-09-16T11:17:15.798Z,47.68
2022-09-16T11:18:15.781Z,47.56
2022-09-16T11:19:15.801Z,46.66
2022-09-16T11:20:15.777Z,46.08
2022-09-16T11:21:15.751Z,46.25
2022-09-16T11:22:15.751Z,48.14
2022-09-16T11:23:15.753Z,47.92
2022-09-16T11:24:15.740Z,47.31
2022-09-16T11:25:15.711Z,47.72
2022-09-16T11:26:15.692Z,46.87
2022-09-16T11:27:15.683Z,47.37
2022-09-16T11:28:15.671Z,47.22
2022-09-16T11:29:15.683Z,46.53
2022-09-16T11:30:15.643Z,46.73
2022-09-16T11:31:15.677Z,46.83
2022-09-16T11:32:15.634Z,47.53
2022-09-16T11:33:23.416Z,46.01
2022-09-16T11:34:15.605Z,46.16
2022-09-16T11:35:15.616Z,45.14
2022-09-16T11:36:15.608Z,45.29
2022-09-16T11:37:15.581Z,48.61
2022-09-16T11:38:15.565Z,50.71
2022-09-16T11:39:15.576Z,51.69
2022-09-16T11:40:15.584Z,50.34
2022-09-16T11:41:15.550Z,49.19
2022-09-16T11:42:15.524Z,49.09
2022-09-16T11:43:15.506Z,48.67
2022-09-16T11:44:15.489Z,48.52
2022-09-16T11:45:15.532Z,48.00
2022-09-16T11:46:15.521Z,47.38
2022-09-16T11:47:15.468Z,46.14
2022-09-16T11:48:15.448Z,45.62
2022-09-16T11:49:15.448Z,44.94
2022-09-16T11:50:15.431Z,44.89
2022-09-16T11:51:15.440Z,46.38
2022-09-16T11:52:15.421Z,46.28
2022-09-16T11:53:16.712Z,48.32
2022-09-16T11:54:15.405Z,49.54
2022-09-16T11:55:15.375Z,50.31
2022-09-16T11:56:15.392Z,51.04
2022-09-16T11:57:15.363Z,50.71
2022-09-16T11:58:15.339Z,51.17
2022-09-16T11:59:15.336Z,49.69
2022-09-16T12:00:15.317Z,49.40
2022-09-16T12:01:15.378Z,49.11
2022-09-16T12:02:15.375Z,49.14
2022-09-16T12:03:15.336Z,49.44
2022-09-16T12:04:15.273Z,49.37
2022-09-16T12:05:15.270Z,49.34
2022-09-16T12:06:15.252Z,48.27
2022-09-16T12:07:15.284Z,46.70
2022-09-16T12:08:15.256Z,45.98
2022-09-16T12:09:15.227Z,46.31
2022-09-16T12:10:15.213Z,46.48
2022-09-16T12:11:15.216Z,46.70
2022-09-16T12:12:15.216Z,47.87
2022-09-16T12:13:15.178Z,48.64
2022-09-16T12:14:15.169Z,50.42
2022-09-16T12:15:15.165Z,51.99
2022-09-16T12:16:15.154Z,53.17
2022-09-16T12:17:15.162Z,53.40
2022-09-16T12:18:15.120Z,52.29
2022-09-16T12:19:15.109Z,50.37
2022-09-16T12:20:15.100Z,48.61
2022-09-16T12:21:15.090Z,48.47
2022-09-16T12:22:15.160Z,46.98
2022-09-16T12:23:15.098Z,46.46
2022-09-16T12:24:15.051Z,45.89
2022-09-16T12:25:15.050Z,47.55
2022-09-16T12:26:15.032Z,46.62
2022-09-16T12:27:15.022Z,46.28
2022-09-16T12:28:15.020Z,46.01
2022-09-16T12:29:15.032Z,45.68
2022-09-16T12:30:14.992Z,45.90
2022-09-16T12:31:15.035Z,46.35
2022-09-16T12:32:15.071Z,47.35
2022-09-16T12:33:14.985Z,46.20
2022-09-16T12:34:14.971Z,45.68
2022-09-16T12:35:14.942Z,45.61
2022-09-16T12:36:16.319Z,45.31
2022-09-16T12:37:14.922Z,45.33
2022-09-16T12:38:14.904Z,45.71
2022-09-16T12:39:14.915Z,45.73
2022-09-16T12:40:14.983Z,45.63
2022-09-16T12:41:14.876Z,45.29
2022-09-16T12:42:14.858Z,44.62
2022-09-16T12:43:14.899Z,43.33
2022-09-16T12:44:35.742Z,43.05
2022-09-16T12:45:15.828Z,43.75
2022-09-16T12:46:14.848Z,43.19
2022-09-16T12:47:14.806Z,43.41
2022-09-16T12:48:14.789Z,43.61
2022-09-16T12:49:14.806Z,43.79
2022-09-16T12:50:14.771Z,43.57
2022-09-16T12:51:14.762Z,44.03
2022-09-16T12:52:14.765Z,44.67
2022-09-16T12:53:14.757Z,46.22
2022-09-16T12:54:14.743Z,45.97